Time;durP1;ratioP1;P1;durP2;ratioP2;P2;SDS_P1;SDS_P2;PMS_P1;PMS_P2;Temp;Humidity;BMP_temperature;BMP_pressure;BME280_temperature;BME280_humidity;BME280_pressure;Samples;Min_cycle;Max_cycle;Signal;HPM_P1;HPM_P2
2023/08/28 00:01:34;;;;;;;4.17;2.73;;;16.30;98.00;;;;;;5031266;28;20482;-66
2023/08/28 00:04:02;;;;;;;5.40;2.80;;;16.30;98.00;;;;;;5031183;28;20838;-66
2023/08/28 00:06:29;;;;;;;4.40;2.67;;;16.30;98.00;;;;;;5032909;28;20458;-66
2023/08/28 00:08:56;;;;;;;5.63;2.83;;;16.30;98.00;;;;;;5035082;28;20454;-66
2023/08/28 00:11:24;;;;;;;3.37;2.63;;;16.30;98.00;;;;;;5035130;28;20821;-66
2023/08/28 00:13:52;;;;;;;4.40;2.80;;;16.40;98.00;;;;;;5035165;28;20459;-67
2023/08/28 00:16:19;;;;;;;3.13;2.37;;;16.50;98.00;;;;;;5034938;28;20960;-66
2023/08/28 00:18:46;;;;;;;4.87;3.07;;;16.40;98.00;;;;;;5034944;28;20459;-66
2023/08/28 00:21:13;;;;;;;4.70;3.00;;;16.40;98.00;;;;;;5034685;28;20995;-66
2023/08/28 00:23:40;;;;;;;6.20;2.80;;;16.20;98.00;;;;;;5035047;28;20462;-66
2023/08/28 00:26:08;;;;;;;7.40;2.83;;;16.20;98.00;;;;;;5034833;28;20817;-66
2023/08/28 00:28:37;;;;;;;6.13;2.80;;;16.40;98.00;;;;;;5034427;28;20457;-66
2023/08/28 00:31:04;;;;;;;4.00;2.43;;;16.40;98.00;;;;;;5034563;28;20879;-66
2023/08/28 00:33:33;;;;;;;5.33;2.70;;;16.40;98.00;;;;;;5034464;28;21012;-66
2023/08/28 00:36:00;;;;;;;3.93;2.70;;;16.40;98.00;;;;;;5034534;28;20504;-66
2023/08/28 00:38:27;;;;;;;3.70;2.60;;;16.30;98.00;;;;;;5034290;28;20952;-66
2023/08/28 00:40:54;;;;;;;3.80;2.63;;;16.10;98.00;;;;;;5034507;28;20490;-66
2023/08/28 00:43:21;;;;;;;4.57;2.53;;;16.00;98.00;;;;;;5034275;28;20447;-66
2023/08/28 00:45:49;;;;;;;4.13;2.77;;;15.90;98.00;;;;;;5034616;28;20450;-66
2023/08/28 00:48:20;;;;;;;4.47;2.70;;;15.80;98.00;;;;;;5034199;28;20956;-66
2023/08/28 00:50:48;;;;;;;3.00;2.30;;;15.90;98.00;;;;;;5034485;28;20457;-66
2023/08/28 00:53:15;;;;;;;3.40;2.80;;;16.00;98.00;;;;;;5033424;28;20979;-66
2023/08/28 00:55:47;;;;;;;3.70;2.70;;;16.00;98.00;;;;;;5034248;28;21090;-66
2023/08/28 00:58:14;;;;;;;4.33;2.80;;;16.10;98.00;;;;;;5034262;28;20451;-66
2023/08/28 01:00:41;;;;;;;4.77;2.93;;;16.20;98.00;;;;;;5034473;28;21003;-66
2023/08/28 01:03:10;;;;;;;6.87;3.00;;;16.20;98.00;;;;;;5034045;28;20491;-66
2023/08/28 01:05:46;;;;;;;6.77;2.60;;;16.00;98.00;;;;;;5034139;28;20462;-66
2023/08/28 01:08:23;;;;;;;15.53;2.70;;;16.00;98.00;;;;;;5033887;28;20948;-66
2023/08/28 01:10:55;;;;;;;4.93;2.67;;;15.90;98.00;;;;;;5034253;28;20584;-66
2023/08/28 01:13:31;;;;;;;3.80;2.30;;;15.80;98.00;;;;;;5033715;28;20455;-66
2023/08/28 01:15:59;;;;;;;4.70;2.73;;;15.80;98.00;;;;;;5033595;28;20545;-66
2023/08/28 01:18:29;;;;;;;4.07;2.53;;;15.70;98.00;;;;;;5033641;28;20501;-66
2023/08/28 01:20:57;;;;;;;3.60;2.53;;;15.80;98.00;;;;;;5033545;28;20490;-66
2023/08/28 01:23:28;;;;;;;5.67;3.10;;;15.90;98.00;;;;;;5033656;28;20458;-66
2023/08/28 01:25:59;;;;;;;4.23;2.70;;;16.00;98.00;;;;;;5033916;28;20458;-66
2023/08/28 01:28:26;;;;;;;3.40;2.53;;;15.90;98.00;;;;;;5015546;28;20487;-66
2023/08/28 01:30:54;;;;;;;3.37;2.40;;;15.80;98.00;;;;;;5033549;28;20455;-66
2023/08/28 01:33:21;;;;;;;4.90;2.63;;;15.90;98.00;;;;;;5033416;28;20538;-66
2023/08/28 01:35:54;;;;;;;3.60;2.60;;;15.90;98.00;;;;;;5034159;28;20833;-66
2023/08/28 01:38:30;;;;;;;3.27;2.43;;;15.80;98.00;;;;;;5015857;28;20450;-66
2023/08/28 01:41:03;;;;;;;4.80;2.80;;;15.80;98.00;;;;;;5033531;28;20489;-66
2023/08/28 01:43:34;;;;;;;4.40;2.40;;;15.70;98.00;;;;;;5033257;28;20451;-66
2023/08/28 01:46:02;;;;;;;5.07;3.33;;;15.80;98.00;;;;;;5033256;28;20865;-66
2023/08/28 01:48:29;;;;;;;4.40;2.50;;;15.80;98.00;;;;;;5033279;28;20489;-66
2023/08/28 01:50:56;;;;;;;3.40;2.33;;;15.80;98.00;;;;;;5033201;28;21010;-66
2023/08/28 01:53:27;;;;;;;3.33;2.40;;;15.80;98.00;;;;;;5033182;28;20451;-66
2023/08/28 01:56:20;;;;;;;6.27;2.87;;;15.80;98.00;;;;;;5033654;28;20862;-66
2023/08/28 01:58:49;;;;;;;3.90;2.50;;;15.70;98.00;;;;;;5026908;28;20470;-66
2023/08/28 02:01:16;;;;;;;3.40;2.47;;;15.70;98.00;;;;;;5032932;28;20487;-66
2023/08/28 02:03:46;;;;;;;4.07;2.60;;;15.70;98.00;;;;;;5032902;28;20453;-66
2023/08/28 02:06:13;;;;;;;3.97;2.67;;;15.70;98.00;;;;;;5032830;28;20870;-66
2023/08/28 02:08:41;;;;;;;2.83;2.37;;;15.70;98.00;;;;;;5032576;28;20794;-66
2023/08/28 02:11:08;;;;;;;4.10;2.37;;;15.90;98.00;;;;;;5032671;28;20457;-66
2023/08/28 02:13:37;;;;;;;3.23;2.27;;;15.80;98.00;;;;;;5032493;28;20482;-66
2023/08/28 02:16:07;;;;;;;6.20;2.90;;;15.80;98.00;;;;;;5032728;28;20465;-66
2023/08/28 02:18:34;;;;;;;4.57;2.40;;;15.90;98.00;;;;;;5032363;28;20454;-66
2023/08/28 02:21:01;;;;;;;3.90;2.70;;;15.90;98.00;;;;;;5015152;28;20873;-66
2023/08/28 02:23:29;;;;;;;4.87;2.47;;;16.00;98.00;;;;;;5032383;28;20455;-66
2023/08/28 02:25:57;;;;;;;3.83;2.30;;;16.10;98.00;;;;;;5032550;28;20584;-66
2023/08/28 02:28:25;;;;;;;3.60;2.50;;;16.10;98.00;;;;;;5031719;28;20458;-66
2023/08/28 02:30:53;;;;;;;2.93;2.20;;;16.00;98.00;;;;;;5032604;28;20454;-66
2023/08/28 02:33:20;;;;;;;3.73;2.50;;;16.10;98.00;;;;;;5032233;28;20465;-66
2023/08/28 02:35:47;;;;;;;4.27;2.70;;;16.10;98.00;;;;;;5032410;28;20447;-66
2023/08/28 02:38:15;;;;;;;4.43;2.97;;;16.00;98.00;;;;;;5032207;28;20960;-66
2023/08/28 02:40:42;;;;;;;3.90;2.83;;;15.90;98.00;;;;;;5032403;28;20508;-66
2023/08/28 02:43:10;;;;;;;4.23;3.00;;;15.90;98.00;;;;;;5032194;28;20465;-66
2023/08/28 02:45:39;;;;;;;5.83;3.80;;;15.90;98.00;;;;;;5031611;28;20447;-66
2023/08/28 02:48:10;;;;;;;8.10;3.43;;;15.80;98.00;;;;;;5032252;28;20454;-66
2023/08/28 02:50:37;;;;;;;4.57;3.03;;;15.60;98.00;;;;;;5032473;28;20491;-66
2023/08/28 02:53:04;;;;;;;4.40;3.00;;;15.60;98.00;;;;;;5031982;28;20454;-66
2023/08/28 02:55:38;;;;;;;8.23;3.03;;;15.60;98.00;;;;;;5032157;28;20936;-66
2023/08/28 02:58:05;;;;;;;6.87;3.47;;;15.70;98.00;;;;;;5031520;28;20901;-66
2023/08/28 03:00:33;;;;;;;3.90;2.87;;;15.80;98.00;;;;;;5031549;28;20462;-66
2023/08/28 03:03:01;;;;;;;5.70;3.03;;;15.80;98.00;;;;;;5031724;28;20455;-66
2023/08/28 03:05:29;;;;;;;5.40;3.30;;;15.80;98.00;;;;;;5031750;28;20466;-66
2023/08/28 03:07:56;;;;;;;4.13;2.97;;;15.80;98.00;;;;;;5031635;28;20451;-66
2023/08/28 03:10:24;;;;;;;4.97;2.97;;;15.70;98.00;;;;;;5031844;28;20454;-66
2023/08/28 03:12:51;;;;;;;8.37;3.43;;;15.70;98.00;;;;;;5031918;28;20509;-66
2023/08/28 03:15:18;;;;;;;4.27;2.97;;;15.60;98.00;;;;;;5031931;28;21050;-66
2023/08/28 03:17:45;;;;;;;4.57;3.03;;;15.50;98.00;;;;;;5031641;28;20459;-66
2023/08/28 03:20:12;;;;;;;4.80;3.00;;;15.50;98.00;;;;;;5031584;28;20485;-66
2023/08/28 03:22:41;;;;;;;4.00;3.00;;;15.40;98.00;;;;;;5031286;28;20489;-66
2023/08/28 03:25:09;;;;;;;5.23;3.17;;;15.40;98.00;;;;;;5031755;28;20455;-66
2023/08/28 03:27:36;;;;;;;4.83;3.13;;;15.30;98.00;;;;;;5031597;28;20459;-66
2023/08/28 03:30:03;;;;;;;5.37;3.23;;;15.30;98.00;;;;;;5031274;28;20462;-66
2023/08/28 03:32:30;;;;;;;4.53;2.77;;;15.40;98.00;;;;;;5031344;28;20450;-66
2023/08/28 03:34:56;;;;;;;4.60;3.03;;;15.40;98.00;;;;;;5031194;28;20945;-66
2023/08/28 03:37:23;;;;;;;4.70;3.07;;;15.50;98.00;;;;;;5031408;28;20466;-66
2023/08/28 03:39:54;;;;;;;5.57;2.93;;;15.50;98.00;;;;;;5031325;28;20949;-66
2023/08/28 03:42:21;;;;;;;4.93;3.10;;;15.60;98.00;;;;;;5014126;28;20482;-66
2023/08/28 03:44:48;;;;;;;4.40;3.00;;;15.60;98.00;;;;;;5031339;28;20455;-66
2023/08/28 03:47:16;;;;;;;4.43;2.80;;;15.60;98.00;;;;;;5013947;28;20450;-66
2023/08/28 03:49:43;;;;;;;4.23;3.00;;;15.60;98.00;;;;;;5031121;28;20809;-66
2023/08/28 03:52:10;;;;;;;3.90;2.90;;;15.60;98.00;;;;;;5031285;28;20451;-66
2023/08/28 03:54:37;;;;;;;6.23;3.17;;;15.70;98.00;;;;;;5030788;28;20512;-66
2023/08/28 03:57:06;;;;;;;5.77;3.10;;;15.70;98.00;;;;;;5031099;28;20446;-66
2023/08/28 03:59:33;;;;;;;5.53;3.20;;;15.80;98.00;;;;;;5013397;28;20458;-66
2023/08/28 04:02:03;;;;;;;4.10;2.87;;;15.80;98.00;;;;;;5031156;28;20482;-66
2023/08/28 04:04:31;;;;;;;8.00;3.40;;;15.80;98.00;;;;;;5030735;28;20451;-66
2023/08/28 04:07:01;;;;;;;4.93;2.93;;;15.80;98.00;;;;;;5031127;28;21004;-66
2023/08/28 04:09:28;;;;;;;6.13;3.23;;;15.80;98.00;;;;;;5031209;28;20459;-66
2023/08/28 04:11:55;;;;;;;5.67;3.20;;;15.80;98.00;;;;;;5030165;28;20462;-66
2023/08/28 04:14:24;;;;;;;6.73;3.17;;;15.70;98.00;;;;;;5031250;28;20449;-66
2023/08/28 04:16:51;;;;;;;4.07;2.80;;;15.60;98.00;;;;;;5031017;28;20469;-66
2023/08/28 04:19:19;;;;;;;4.30;2.77;;;15.50;98.00;;;;;;5030822;28;20446;-66
2023/08/28 04:21:46;;;;;;;6.07;3.40;;;15.60;98.00;;;;;;5030667;28;20491;-66
2023/08/28 04:24:13;;;;;;;3.83;2.60;;;15.60;98.00;;;;;;5030734;28;20455;-66
2023/08/28 04:26:40;;;;;;;4.50;2.87;;;15.60;98.00;;;;;;5030853;28;20458;-66
2023/08/28 04:29:07;;;;;;;4.10;2.87;;;15.60;98.00;;;;;;5030806;28;20525;-66
2023/08/28 04:31:35;;;;;;;5.03;2.43;;;15.60;98.00;;;;;;5030814;28;20455;-66
2023/08/28 04:34:03;;;;;;;3.83;2.43;;;15.50;98.00;;;;;;5030795;28;20459;-66
2023/08/28 04:36:30;;;;;;;3.97;2.80;;;15.50;98.00;;;;;;5030781;28;20546;-66
2023/08/28 04:38:57;;;;;;;5.20;2.77;;;15.60;98.00;;;;;;5030444;28;20454;-66
2023/08/28 04:41:24;;;;;;;9.07;3.10;;;15.70;98.00;;;;;;5031013;28;20880;-66
2023/08/28 04:43:51;;;;;;;3.90;2.67;;;15.80;98.00;;;;;;5030835;28;20455;-66
2023/08/28 04:46:18;;;;;;;3.47;2.60;;;15.90;98.00;;;;;;5030807;28;20446;-66
2023/08/28 04:48:46;;;;;;;2.57;2.30;;;15.90;98.00;;;;;;5030736;28;20450;-66
2023/08/28 04:51:13;;;;;;;4.20;2.50;;;15.90;98.00;;;;;;5030580;28;20462;-66
2023/08/28 04:53:40;;;;;;;4.00;2.40;;;15.80;98.00;;;;;;5034198;28;20876;-66
2023/08/28 04:56:07;;;;;;;3.03;2.43;;;15.80;98.00;;;;;;5034418;28;20450;-66
2023/08/28 04:58:34;;;;;;;6.37;3.37;;;15.70;98.00;;;;;;5033847;28;20447;-66
2023/08/28 05:01:02;;;;;;;5.07;2.70;;;15.70;98.00;;;;;;5034321;28;20451;-66
2023/08/28 05:03:29;;;;;;;3.67;2.57;;;15.80;98.00;;;;;;5033583;28;20525;-66
2023/08/28 05:05:58;;;;;;;7.60;3.23;;;15.80;98.00;;;;;;5033906;28;20482;-66
2023/08/28 05:08:25;;;;;;;4.87;2.90;;;15.80;98.00;;;;;;5033929;28;20844;-66
2023/08/28 05:10:52;;;;;;;7.80;3.07;;;15.80;98.00;;;;;;5034018;28;20455;-66
2023/08/28 05:13:19;;;;;;;3.87;2.97;;;15.80;98.00;;;;;;5033725;28;20941;-66
2023/08/28 05:15:46;;;;;;;4.40;2.90;;;15.80;98.00;;;;;;5034068;28;20512;-66
2023/08/28 05:18:13;;;;;;;5.00;3.10;;;15.90;98.00;;;;;;5033732;28;20937;-66
2023/08/28 05:20:40;;;;;;;5.67;3.67;;;15.90;98.00;;;;;;5033747;28;20454;-66
2023/08/28 05:23:08;;;;;;;6.37;3.40;;;16.00;98.00;;;;;;5033842;28;20591;-66
2023/08/28 05:25:35;;;;;;;6.93;3.47;;;16.10;98.00;;;;;;5033599;28;20450;-66
2023/08/28 05:28:03;;;;;;;15.17;3.00;;;16.10;98.00;;;;;;5034053;28;20447;-66
2023/08/28 05:30:30;;;;;;;6.50;3.10;;;16.10;98.00;;;;;;5033451;28;20443;-66
2023/08/28 05:32:56;;;;;;;6.20;3.40;;;16.10;98.00;;;;;;5033623;28;20455;-66
2023/08/28 05:35:24;;;;;;;4.97;2.77;;;16.10;98.00;;;;;;5033294;28;20435;-66
2023/08/28 05:37:51;;;;;;;5.30;3.07;;;16.10;98.00;;;;;;5016329;28;20867;-66
2023/08/28 05:40:19;;;;;;;9.73;3.37;;;16.20;98.00;;;;;;5033661;28;20462;-66
2023/08/28 05:42:48;;;;;;;5.93;3.53;;;16.40;98.00;;;;;;5033405;28;20490;-66
2023/08/28 05:45:15;;;;;;;6.03;3.73;;;16.50;98.00;;;;;;5033077;28;20512;-66
2023/08/28 05:47:42;;;;;;;7.00;3.97;;;16.50;98.00;;;;;;5033203;28;20447;-67
2023/08/28 05:50:10;;;;;;;5.63;3.87;;;16.50;98.00;;;;;;5032935;28;20461;-66
2023/08/28 05:52:37;;;;;;;4.80;3.10;;;16.50;98.00;;;;;;5032458;28;20790;-66
2023/08/28 05:55:05;;;;;;;6.10;4.10;;;16.30;98.00;;;;;;5033202;28;20481;-66
2023/08/28 05:57:34;;;;;;;5.60;3.70;;;16.10;98.00;;;;;;5032917;28;20462;-66
2023/08/28 06:00:02;;;;;;;6.27;3.73;;;16.10;98.00;;;;;;5032933;28;20836;-66
2023/08/28 06:02:29;;;;;;;9.10;3.73;;;16.20;98.00;;;;;;5032905;28;20525;-66
2023/08/28 06:04:56;;;;;;;6.87;3.50;;;16.40;98.00;;;;;;5031748;28;20960;-66
2023/08/28 06:07:23;;;;;;;6.63;4.10;;;16.40;98.00;;;;;;5032982;28;20450;-66
2023/08/28 06:09:50;;;;;;;7.07;3.97;;;16.40;98.00;;;;;;5032792;28;20451;-66
2023/08/28 06:12:17;;;;;;;8.50;3.50;;;16.50;98.00;;;;;;5032811;28;20458;-64
2023/08/28 06:14:46;;;;;;;6.13;3.60;;;16.50;98.00;;;;;;5032739;28;20451;-64
2023/08/28 06:17:13;;;;;;;8.50;4.97;;;16.40;98.00;;;;;;5032709;28;20455;-64
2023/08/28 06:19:40;;;;;;;5.87;4.10;;;16.40;98.00;;;;;;5032812;28;20461;-64
2023/08/28 06:22:07;;;;;;;7.30;3.77;;;16.40;98.00;;;;;;5032138;28;21010;-64
2023/08/28 06:24:35;;;;;;;9.30;4.80;;;16.30;98.00;;;;;;5032471;28;20446;-64
2023/08/28 06:27:02;;;;;;;9.03;4.83;;;16.30;98.00;;;;;;5032547;28;20862;-64
2023/08/28 06:29:29;;;;;;;7.30;3.90;;;16.40;98.00;;;;;;5032510;28;20504;-64
2023/08/28 06:31:58;;;;;;;5.97;3.57;;;16.50;98.00;;;;;;5015369;28;20862;-63
2023/08/28 06:34:25;;;;;;;6.53;3.80;;;16.70;98.00;;;;;;5032423;28;20540;-63
2023/08/28 06:36:52;;;;;;;6.53;3.80;;;16.60;98.00;;;;;;5031940;28;20454;-64
2023/08/28 06:39:20;;;;;;;5.50;3.60;;;16.50;98.00;;;;;;5031664;28;20466;-64
2023/08/28 06:41:47;;;;;;;8.90;4.00;;;16.60;98.00;;;;;;5014478;28;20524;-64
2023/08/28 06:44:14;;;;;;;5.10;3.47;;;16.50;98.00;;;;;;5014836;28;20458;-64
2023/08/28 06:46:41;;;;;;;6.63;4.10;;;16.60;98.00;;;;;;5032243;28;20465;-64
2023/08/28 06:49:09;;;;;;;6.30;3.57;;;16.60;98.00;;;;;;5032044;28;20937;-64
2023/08/28 06:51:37;;;;;;;10.40;4.30;;;16.60;98.00;;;;;;5032058;28;20466;-64
2023/08/28 06:54:04;;;;;;;8.77;4.73;;;16.70;98.00;;;;;;5014202;28;20462;-64
2023/08/28 06:56:31;;;;;;;7.93;4.00;;;16.70;98.00;;;;;;5031896;28;20469;-64
2023/08/28 06:58:58;;;;;;;8.63;3.67;;;16.50;98.00;;;;;;5032179;28;20454;-64
2023/08/28 07:01:25;;;;;;;7.90;4.20;;;16.50;98.00;;;;;;5031789;28;20466;-64
2023/08/28 07:03:52;;;;;;;6.30;3.50;;;16.50;98.00;;;;;;5031767;28;20485;-64
2023/08/28 07:06:20;;;;;;;6.80;3.97;;;16.60;98.00;;;;;;5030826;28;20458;-64
2023/08/28 07:08:47;;;;;;;8.83;3.90;;;16.50;98.00;;;;;;5031696;28;20463;-64
2023/08/28 07:11:15;;;;;;;7.07;3.93;;;16.60;98.00;;;;;;5031548;28;20462;-64
2023/08/28 07:13:42;;;;;;;6.30;3.97;;;16.60;98.00;;;;;;5014029;28;20462;-64
2023/08/28 07:16:08;;;;;;;6.60;3.97;;;16.50;98.00;;;;;;5031345;28;20450;-64
2023/08/28 07:18:36;;;;;;;8.30;4.20;;;16.50;98.00;;;;;;5031413;28;20462;-64
2023/08/28 07:21:03;;;;;;;5.37;3.40;;;16.50;98.00;;;;;;5014141;28;20849;-64
2023/08/28 07:23:32;;;;;;;5.50;3.40;;;16.50;98.00;;;;;;5031310;28;20483;-64
2023/08/28 07:26:02;;;;;;;8.07;3.20;;;16.40;98.00;;;;;;5031610;28;20462;-64
2023/08/28 07:28:31;;;;;;;4.90;3.10;;;16.50;98.00;;;;;;5030959;28;20457;-64
2023/08/28 07:30:59;;;;;;;5.70;3.53;;;16.40;98.00;;;;;;4997049;28;20461;-64
2023/08/28 07:33:27;;;;;;;5.23;3.40;;;16.50;98.00;;;;;;5031146;28;20447;-64
2023/08/28 07:35:54;;;;;;;6.70;4.10;;;16.60;98.00;;;;;;5031322;28;20450;-64
2023/08/28 07:38:21;;;;;;;7.20;3.53;;;16.70;98.00;;;;;;5031051;28;20879;-64
2023/08/28 07:40:50;;;;;;;5.90;3.43;;;16.80;98.00;;;;;;5031222;28;20458;-64
2023/08/28 07:43:17;;;;;;;4.37;2.30;;;17.00;98.00;;;;;;5030355;28;20493;-68
2023/08/28 07:45:44;;;;;;;3.17;2.40;;;17.10;98.00;;;;;;5031054;28;20454;-68
2023/08/28 07:48:11;;;;;;;3.53;2.30;;;17.50;98.00;;;;;;5031162;28;20490;-69
2023/08/28 07:50:40;;;;;;;4.17;2.60;;;17.90;98.00;;;;;;5030991;28;20469;-68
2023/08/28 07:53:07;;;;;;;5.20;2.57;;;18.30;98.00;;;;;;5030957;28;20493;-67
2023/08/28 07:55:34;;;;;;;4.37;2.80;;;18.70;98.00;;;;;;5031127;28;20472;-67
2023/08/28 07:58:03;;;;;;;3.90;2.80;;;19.00;98.00;;;;;;5030494;28;20451;-68
2023/08/28 08:00:34;;;;;;;7.07;3.50;;;19.20;98.00;;;;;;5030998;28;20508;-66
2023/08/28 08:03:03;;;;;;;4.27;3.37;;;19.20;98.00;;;;;;5030661;28;20490;-65
2023/08/28 08:05:31;;;;;;;4.10;2.90;;;19.10;98.00;;;;;;5013182;28;20547;-66
2023/08/28 08:07:58;;;;;;;3.83;2.70;;;19.00;98.00;;;;;;5030900;28;20952;-65
2023/08/28 08:10:25;;;;;;;2.93;2.37;;;19.00;98.00;;;;;;5030902;28;20457;-65
2023/08/28 08:12:54;;;;;;;3.10;2.33;;;18.90;98.00;;;;;;5031005;28;20458;-65
2023/08/28 08:15:22;;;;;;;6.00;2.80;;;18.70;98.00;;;;;;5030904;28;20829;-65
2023/08/28 08:17:49;;;;;;;3.93;2.73;;;18.60;98.00;;;;;;5030963;28;20446;-65
2023/08/28 08:20:17;;;;;;;4.10;2.73;;;18.20;98.00;;;;;;5030928;28;20843;-65
2023/08/28 08:22:46;;;;;;;4.27;2.93;;;18.00;98.00;;;;;;5013442;28;20486;-65
2023/08/28 08:25:15;;;;;;;3.37;2.60;;;18.00;98.00;;;;;;5031037;28;20454;-64
2023/08/28 08:27:44;;;;;;;3.93;2.60;;;18.00;98.00;;;;;;5032827;28;20582;-65
2023/08/28 08:30:13;;;;;;;4.40;2.77;;;17.90;98.00;;;;;;5034656;28;20948;-65
2023/08/28 08:32:43;;;;;;;3.57;2.50;;;17.80;98.00;;;;;;5034429;28;20494;-65
2023/08/28 08:35:12;;;;;;;4.03;2.90;;;17.70;98.00;;;;;;5034752;28;20447;-63
2023/08/28 08:37:39;;;;;;;8.27;3.20;;;17.70;98.00;;;;;;5034372;28;20451;-63
2023/08/28 08:40:14;;;;;;;4.87;2.90;;;17.60;98.00;;;;;;5034542;28;20490;-63
2023/08/28 08:42:41;;;;;;;4.60;2.80;;;17.60;98.00;;;;;;5033919;28;20521;-63
2023/08/28 08:45:10;;;;;;;3.63;2.27;;;17.60;98.00;;;;;;5034494;28;20477;-64
2023/08/28 08:47:39;;;;;;;3.40;2.43;;;17.60;98.00;;;;;;5034268;28;20542;-63
2023/08/28 08:50:09;;;;;;;4.87;2.70;;;17.40;98.00;;;;;;5034352;28;20810;-64
2023/08/28 08:52:39;;;;;;;4.83;3.10;;;17.50;98.00;;;;;;5034157;28;20885;-64
2023/08/28 08:55:13;;;;;;;3.60;2.90;;;17.60;98.00;;;;;;5033364;28;21039;-64
2023/08/28 08:57:46;;;;;;;3.80;2.57;;;17.50;98.00;;;;;;5033586;28;21010;-63
2023/08/28 09:00:15;;;;;;;9.83;3.30;;;17.30;98.00;;;;;;5034179;28;20529;-64
2023/08/28 09:02:43;;;;;;;4.23;2.87;;;17.10;98.00;;;;;;5034146;28;20487;-64
2023/08/28 09:05:12;;;;;;;5.63;3.20;;;17.10;98.00;;;;;;5034225;28;20467;-65
2023/08/28 09:07:40;;;;;;;5.87;3.10;;;17.30;98.00;;;;;;5034153;28;21050;-65
2023/08/28 09:10:08;;;;;;;7.73;2.90;;;17.20;98.00;;;;;;5014428;28;20461;-65
2023/08/28 09:12:37;;;;;;;3.70;2.70;;;17.10;98.00;;;;;;5032376;28;20633;-65
2023/08/28 09:15:05;;;;;;;4.93;3.30;;;17.10;98.00;;;;;;5032944;28;20492;-66
2023/08/28 09:17:32;;;;;;;6.30;3.77;;;17.20;98.00;;;;;;5033428;28;20458;-66
2023/08/28 09:20:13;;;;;;;4.80;2.90;;;17.30;98.00;;;;;;5033897;28;20447;-66
2023/08/28 09:22:46;;;;;;;5.90;3.20;;;17.50;98.00;;;;;;5033489;28;20490;-66
2023/08/28 09:25:13;;;;;;;6.70;3.10;;;17.70;98.00;;;;;;5033705;28;20892;-66
2023/08/28 09:27:42;;;;;;;4.83;2.90;;;17.70;98.00;;;;;;5033563;28;20455;-66
2023/08/28 09:30:12;;;;;;;8.30;3.47;;;17.60;98.00;;;;;;5032850;28;20964;-67
2023/08/28 09:32:46;;;;;;;5.37;3.63;;;17.70;98.00;;;;;;5015892;28;20465;-66
2023/08/28 09:35:15;;;;;;;8.30;3.57;;;17.70;98.00;;;;;;5033318;28;20453;-66
2023/08/28 09:37:44;;;;;;;5.80;3.03;;;17.50;98.00;;;;;;5033228;28;20886;-66
2023/08/28 09:40:12;;;;;;;4.67;3.10;;;17.60;98.00;;;;;;5033290;28;20828;-66
2023/08/28 09:42:42;;;;;;;5.90;3.40;;;17.80;98.00;;;;;;5032622;28;20450;-66
2023/08/28 09:45:10;;;;;;;4.27;2.77;;;18.10;98.00;;;;;;5015605;28;20520;-66
2023/08/28 09:47:37;;;;;;;4.20;3.13;;;18.40;98.00;;;;;;4998549;28;20463;-66
2023/08/28 09:50:08;;;;;;;4.17;3.13;;;18.50;98.00;;;;;;5032913;28;20454;-67
2023/08/28 09:52:35;;;;;;;5.30;2.87;;;18.50;98.00;;;;;;5033112;28;20490;-66
2023/08/28 09:55:05;;;;;;;5.13;3.20;;;18.40;98.00;;;;;;5015636;28;20521;-66
2023/08/28 09:57:32;;;;;;;4.53;3.33;;;18.40;98.00;;;;;;5032542;28;20470;-66
2023/08/28 09:59:59;;;;;;;6.10;3.40;;;18.30;98.00;;;;;;5033079;28;20856;-66
2023/08/28 10:02:28;;;;;;;5.63;3.20;;;18.30;98.00;;;;;;5032873;28;20466;-66
2023/08/28 10:04:59;;;;;;;3.83;2.77;;;18.40;98.00;;;;;;5032498;28;21082;-68
2023/08/28 10:07:28;;;;;;;5.80;3.20;;;18.40;98.00;;;;;;5032901;28;20538;-65
2023/08/28 10:10:03;;;;;;;5.97;3.47;;;18.20;98.00;;;;;;5031533;28;20533;-65
2023/08/28 10:12:32;;;;;;;5.03;3.40;;;18.10;98.00;;;;;;5032945;28;20944;-66
2023/08/28 10:15:03;;;;;;;6.43;3.43;;;18.10;98.00;;;;;;5032935;28;20786;-65
2023/08/28 10:17:33;;;;;;;5.00;3.20;;;18.10;98.00;;;;;;5032752;28;20455;-66
2023/08/28 10:20:03;;;;;;;4.60;3.03;;;18.10;98.00;;;;;;5030912;28;20458;-66
2023/08/28 10:22:31;;;;;;;5.23;3.33;;;18.20;98.00;;;;;;5032344;28;20487;-65
2023/08/28 10:24:59;;;;;;;5.20;3.00;;;18.20;98.00;;;;;;5032494;28;20493;-66
2023/08/28 10:27:27;;;;;;;5.53;3.10;;;18.30;98.00;;;;;;5032274;28;20476;-65
2023/08/28 10:29:57;;;;;;;4.30;3.07;;;18.20;98.00;;;;;;5032242;28;20453;-65
2023/08/28 10:32:25;;;;;;;4.23;2.83;;;18.20;98.00;;;;;;5032592;28;20513;-66
2023/08/28 10:34:53;;;;;;;5.80;3.40;;;18.30;98.00;;;;;;5031943;28;20458;-65
2023/08/28 10:37:21;;;;;;;5.50;3.50;;;18.40;98.00;;;;;;5032201;28;20944;-65
2023/08/28 10:39:50;;;;;;;5.40;3.03;;;18.50;98.00;;;;;;5014705;28;20807;-66
2023/08/28 10:42:19;;;;;;;4.23;3.27;;;18.60;98.00;;;;;;5032095;28;20457;-66
2023/08/28 10:44:50;;;;;;;4.40;2.93;;;18.80;98.00;;;;;;5031990;28;20482;-66
2023/08/28 10:47:20;;;;;;;4.00;2.80;;;19.00;98.00;;;;;;5031800;28;20459;-66
2023/08/28 10:49:47;;;;;;;4.33;2.83;;;19.00;98.00;;;;;;5031290;28;20454;-66
2023/08/28 10:52:19;;;;;;;4.03;2.80;;;19.10;98.00;;;;;;5032405;28;20454;-66
2023/08/28 10:54:46;;;;;;;7.27;3.23;;;19.20;98.00;;;;;;5031879;28;20486;-66
2023/08/28 10:57:23;;;;;;;5.33;3.20;;;19.30;98.00;;;;;;5032073;28;20948;-66
2023/08/28 10:59:50;;;;;;;4.27;2.97;;;19.20;98.00;;;;;;5031900;28;20453;-66
2023/08/28 11:02:19;;;;;;;4.40;3.20;;;19.30;98.00;;;;;;5032071;28;20461;-66
2023/08/28 11:04:47;;;;;;;4.57;2.87;;;19.30;98.00;;;;;;5031707;28;20498;-66
2023/08/28 11:07:45;;;;;;;4.10;2.80;;;19.30;98.00;;;;;;5031841;28;20447;-66
2023/08/28 11:10:20;;;;;;;3.47;2.70;;;19.40;98.00;;;;;;5027282;28;20451;-66
2023/08/28 11:12:53;;;;;;;4.53;3.03;;;19.30;98.00;;;;;;5031591;28;20467;-66
2023/08/28 11:15:28;;;;;;;5.37;2.77;;;19.30;98.00;;;;;;5031653;28;20466;-66
2023/08/28 11:18:27;;;;;;;3.73;2.63;;;19.20;98.00;;;;;;5031545;28;20859;-66
2023/08/28 11:20:55;;;;;;;3.77;2.60;;;19.30;98.00;;;;;;5031343;28;20501;-66
2023/08/28 11:23:24;;;;;;;5.00;3.30;;;19.30;98.00;;;;;;5031184;28;20493;-66
2023/08/28 11:25:52;;;;;;;3.70;2.73;;;19.30;98.00;;;;;;5031779;28;20459;-66
2023/08/28 11:28:29;;;;;;;5.00;2.70;;;19.10;98.00;;;;;;5031610;28;20450;-66
2023/08/28 11:31:00;;;;;;;4.60;3.20;;;19.10;98.00;;;;;;5031023;28;20454;-65
2023/08/28 11:33:39;;;;;;;3.80;2.73;;;19.20;98.00;;;;;;5031375;28;20455;-66
2023/08/28 11:36:06;;;;;;;5.73;3.00;;;19.10;98.00;;;;;;5030968;28;20485;-66
2023/08/28 11:38:33;;;;;;;5.63;2.93;;;19.00;98.00;;;;;;5031260;28;20538;-67
2023/08/28 11:41:04;;;;;;;4.07;2.90;;;19.00;98.00;;;;;;5014062;28;20451;-67
2023/08/28 11:43:35;;;;;;;4.23;2.83;;;19.00;98.00;;;;;;5031251;28;21019;-67
2023/08/28 11:46:03;;;;;;;3.63;2.83;;;19.10;98.00;;;;;;5031238;28;20486;-67
2023/08/28 11:48:35;;;;;;;5.70;3.00;;;19.10;98.00;;;;;;5031009;28;20459;-67
2023/08/28 11:51:03;;;;;;;4.73;3.37;;;19.20;98.00;;;;;;5031585;28;20454;-67
2023/08/28 11:53:32;;;;;;;4.37;3.13;;;19.30;98.00;;;;;;5031048;28;20509;-67
2023/08/28 11:56:12;;;;;;;4.53;2.70;;;19.30;98.00;;;;;;5031484;28;20477;-67
2023/08/28 11:58:41;;;;;;;6.43;3.00;;;19.40;98.00;;;;;;5031214;28;20463;-67
2023/08/28 12:01:08;;;;;;;4.20;2.60;;;19.50;98.00;;;;;;5031047;28;20454;-66
2023/08/28 12:03:38;;;;;;;3.43;2.60;;;19.40;98.00;;;;;;5034647;28;20537;-67
2023/08/28 12:06:07;;;;;;;3.23;2.50;;;19.40;98.00;;;;;;5035393;28;20466;-67
2023/08/28 12:08:36;;;;;;;3.10;2.40;;;19.30;98.00;;;;;;5035124;28;20462;-67
2023/08/28 12:11:04;;;;;;;2.93;2.30;;;19.20;98.00;;;;;;5034965;28;20960;-67
2023/08/28 12:13:33;;;;;;;3.40;2.70;;;19.20;98.00;;;;;;5034819;28;20508;-66
2023/08/28 12:16:11;;;;;;;3.10;2.20;;;19.00;98.00;;;;;;5034941;28;20454;-64
2023/08/28 12:18:49;;;;;;;3.07;2.40;;;18.90;98.00;;;;;;5035087;28;20458;-64
2023/08/28 12:21:20;;;;;;;3.20;2.50;;;18.90;98.00;;;;;;5017426;28;20446;-65
2023/08/28 12:23:49;;;;;;;2.67;2.10;;;18.90;98.00;;;;;;5035209;28;20540;-64
2023/08/28 12:26:23;;;;;;;3.93;2.80;;;18.90;98.00;;;;;;5034475;28;21079;-64
2023/08/28 12:28:50;;;;;;;4.60;2.57;;;18.90;98.00;;;;;;5034440;28;20455;-64
2023/08/28 12:31:26;;;;;;;2.40;2.17;;;18.90;98.00;;;;;;5034158;28;20458;-64
2023/08/28 12:33:55;;;;;;;3.40;2.40;;;18.90;98.00;;;;;;5034717;28;20527;-64
2023/08/28 12:36:34;;;;;;;3.77;2.63;;;18.90;98.00;;;;;;5034656;28;20451;-64
2023/08/28 12:39:03;;;;;;;2.90;2.23;;;18.80;98.00;;;;;;5034351;28;20458;-64
2023/08/28 12:41:35;;;;;;;2.57;2.20;;;18.90;98.00;;;;;;5017328;28;20508;-64
2023/08/28 12:44:02;;;;;;;3.30;2.33;;;18.90;98.00;;;;;;5034339;28;21086;-65
2023/08/28 12:46:30;;;;;;;3.80;2.77;;;19.00;98.00;;;;;;5034623;28;20446;-64
2023/08/28 12:48:58;;;;;;;3.90;2.30;;;19.10;98.00;;;;;;5034457;28;20450;-64
2023/08/28 12:51:26;;;;;;;2.70;2.00;;;19.10;98.00;;;;;;5034087;28;20538;-64
2023/08/28 12:53:53;;;;;;;7.20;2.30;;;19.10;98.00;;;;;;5034395;28;20462;-64